sensor_id;sensor_type;location;lat;lon;timestamp;P1;durP1;ratioP1;P2;durP2;ratioP2
32407;SDS011;18869;55.970;37.502;2023-09-08T00:01:14;2.00;;;1.90;;
32407;SDS011;18869;55.970;37.502;2023-09-08T00:03:53;2.17;;;1.97;;
32407;SDS011;18869;55.970;37.502;2023-09-08T00:06:20;2.47;;;2.00;;
32407;SDS011;18869;55.970;37.502;2023-09-08T00:08:55;2.63;;;2.20;;
32407;SDS011;18869;55.970;37.502;2023-09-08T00:11:26;4.03;;;2.30;;
32407;SDS011;18869;55.970;37.502;2023-09-08T00:13:55;2.10;;;2.00;;
32407;SDS011;18869;55.970;37.502;2023-09-08T00:16:24;2.13;;;1.80;;
32407;SDS011;18869;55.970;37.502;2023-09-08T00:18:53;4.13;;;2.97;;
32407;SDS011;18869;55.970;37.502;2023-09-08T00:21:21;3.70;;;2.10;;
32407;SDS011;18869;55.970;37.502;2023-09-08T00:23:52;2.47;;;2.10;;
32407;SDS011;18869;55.970;37.502;2023-09-08T00:26:19;2.67;;;2.20;;
32407;SDS011;18869;55.970;37.502;2023-09-08T00:28:51;2.17;;;2.03;;
32407;SDS011;18869;55.970;37.502;2023-09-08T00:31:18;2.33;;;1.97;;
32407;SDS011;18869;55.970;37.502;2023-09-08T00:33:44;2.13;;;1.93;;
32407;SDS011;18869;55.970;37.502;2023-09-08T00:36:13;2.77;;;2.07;;
32407;SDS011;18869;55.970;37.502;2023-09-08T00:38:47;3.27;;;2.20;;
32407;SDS011;18869;55.970;37.502;2023-09-08T00:41:33;2.57;;;2.30;;
32407;SDS011;18869;55.970;37.502;2023-09-08T00:44:05;2.77;;;2.03;;
32407;SDS011;18869;55.970;37.502;2023-09-08T00:46:34;2.20;;;2.00;;
32407;SDS011;18869;55.970;37.502;2023-09-08T00:49:04;4.50;;;2.17;;
32407;SDS011;18869;55.970;37.502;2023-09-08T00:51:34;2.03;;;1.93;;
32407;SDS011;18869;55.970;37.502;2023-09-08T00:54:04;2.60;;;2.40;;
32407;SDS011;18869;55.970;37.502;2023-09-08T00:56:31;2.20;;;2.00;;
32407;SDS011;18869;55.970;37.502;2023-09-08T00:59:01;2.20;;;2.10;;
32407;SDS011;18869;55.970;37.502;2023-09-08T01:01:29;2.30;;;2.00;;
32407;SDS011;18869;55.970;37.502;2023-09-08T01:03:57;2.67;;;1.90;;
32407;SDS011;18869;55.970;37.502;2023-09-08T01:06:27;3.33;;;2.37;;
32407;SDS011;18869;55.970;37.502;2023-09-08T01:08:55;2.30;;;2.20;;
32407;SDS011;18869;55.970;37.502;2023-09-08T01:11:25;2.90;;;1.70;;
32407;SDS011;18869;55.970;37.502;2023-09-08T01:13:58;2.40;;;2.27;;
32407;SDS011;18869;55.970;37.502;2023-09-08T01:16:27;2.57;;;2.17;;
32407;SDS011;18869;55.970;37.502;2023-09-08T01:18:56;2.57;;;2.37;;
32407;SDS011;18869;55.970;37.502;2023-09-08T01:21:35;2.47;;;2.27;;
32407;SDS011;18869;55.970;37.502;2023-09-08T01:24:32;4.27;;;2.30;;
32407;SDS011;18869;55.970;37.502;2023-09-08T01:27:05;2.50;;;2.30;;
32407;SDS011;18869;55.970;37.502;2023-09-08T01:29:33;2.53;;;2.33;;
32407;SDS011;18869;55.970;37.502;2023-09-08T01:32:00;2.50;;;2.30;;
32407;SDS011;18869;55.970;37.502;2023-09-08T01:34:27;2.20;;;2.00;;
32407;SDS011;18869;55.970;37.502;2023-09-08T01:36:54;3.00;;;2.50;;
32407;SDS011;18869;55.970;37.502;2023-09-08T01:39:22;2.50;;;2.27;;
32407;SDS011;18869;55.970;37.502;2023-09-08T01:41:51;3.47;;;2.33;;
32407;SDS011;18869;55.970;37.502;2023-09-08T01:44:19;2.50;;;2.30;;
32407;SDS011;18869;55.970;37.502;2023-09-08T01:46:46;2.17;;;2.03;;
32407;SDS011;18869;55.970;37.502;2023-09-08T01:49:13;10.17;;;2.53;;
32407;SDS011;18869;55.970;37.502;2023-09-08T01:51:41;3.47;;;2.23;;
32407;SDS011;18869;55.970;37.502;2023-09-08T01:54:08;2.10;;;1.97;;
32407;SDS011;18869;55.970;37.502;2023-09-08T01:56:37;3.03;;;2.63;;
32407;SDS011;18869;55.970;37.502;2023-09-08T01:59:04;2.10;;;1.90;;
32407;SDS011;18869;55.970;37.502;2023-09-08T02:01:32;2.43;;;2.23;;
32407;SDS011;18869;55.970;37.502;2023-09-08T02:04:00;2.20;;;2.00;;
32407;SDS011;18869;55.970;37.502;2023-09-08T02:06:27;2.03;;;1.90;;
32407;SDS011;18869;55.970;37.502;2023-09-08T02:08:53;2.63;;;2.43;;
32407;SDS011;18869;55.970;37.502;2023-09-08T02:11:21;2.77;;;2.57;;
32407;SDS011;18869;55.970;37.502;2023-09-08T02:13:48;2.43;;;1.97;;
32407;SDS011;18869;55.970;37.502;2023-09-08T02:16:15;2.47;;;2.27;;
32407;SDS011;18869;55.970;37.502;2023-09-08T02:18:44;2.57;;;2.37;;
32407;SDS011;18869;55.970;37.502;2023-09-08T02:21:12;2.37;;;2.13;;
32407;SDS011;18869;55.970;37.502;2023-09-08T02:23:39;3.17;;;2.50;;
32407;SDS011;18869;55.970;37.502;2023-09-08T02:26:06;2.40;;;2.30;;
32407;SDS011;18869;55.970;37.502;2023-09-08T02:28:34;2.70;;;2.50;;
32407;SDS011;18869;55.970;37.502;2023-09-08T02:31:00;3.20;;;2.93;;
32407;SDS011;18869;55.970;37.502;2023-09-08T02:33:28;2.97;;;2.73;;
32407;SDS011;18869;55.970;37.502;2023-09-08T02:35:55;5.37;;;2.67;;
32407;SDS011;18869;55.970;37.502;2023-09-08T02:38:28;4.77;;;2.87;;
32407;SDS011;18869;55.970;37.502;2023-09-08T02:40:55;3.93;;;2.50;;
32407;SDS011;18869;55.970;37.502;2023-09-08T02:43:22;2.60;;;2.40;;
32407;SDS011;18869;55.970;37.502;2023-09-08T02:45:49;2.53;;;2.33;;
32407;SDS011;18869;55.970;37.502;2023-09-08T02:48:17;2.30;;;2.20;;
32407;SDS011;18869;55.970;37.502;2023-09-08T02:50:44;2.57;;;2.37;;
32407;SDS011;18869;55.970;37.502;2023-09-08T02:53:12;2.73;;;2.50;;
32407;SDS011;18869;55.970;37.502;2023-09-08T02:55:39;2.63;;;2.43;;
32407;SDS011;18869;55.970;37.502;2023-09-08T02:58:06;3.37;;;3.07;;
32407;SDS011;18869;55.970;37.502;2023-09-08T03:00:32;6.53;;;2.50;;
32407;SDS011;18869;55.970;37.502;2023-09-08T03:03:00;2.50;;;2.30;;
32407;SDS011;18869;55.970;37.502;2023-09-08T03:05:27;3.43;;;3.07;;
32407;SDS011;18869;55.970;37.502;2023-09-08T03:07:54;2.77;;;2.50;;
32407;SDS011;18869;55.970;37.502;2023-09-08T03:10:22;2.83;;;2.47;;
32407;SDS011;18869;55.970;37.502;2023-09-08T03:12:48;4.27;;;2.80;;
32407;SDS011;18869;55.970;37.502;2023-09-08T03:15:16;2.67;;;2.47;;
32407;SDS011;18869;55.970;37.502;2023-09-08T03:17:43;2.10;;;2.00;;
32407;SDS011;18869;55.970;37.502;2023-09-08T03:20:10;2.37;;;2.13;;
32407;SDS011;18869;55.970;37.502;2023-09-08T03:22:39;3.47;;;2.90;;
32407;SDS011;18869;55.970;37.502;2023-09-08T03:25:06;2.63;;;2.43;;
32407;SDS011;18869;55.970;37.502;2023-09-08T03:27:34;3.17;;;2.77;;
32407;SDS011;18869;55.970;37.502;2023-09-08T03:30:01;4.83;;;3.20;;
32407;SDS011;18869;55.970;37.502;2023-09-08T03:32:31;3.03;;;2.70;;
32407;SDS011;18869;55.970;37.502;2023-09-08T03:34:58;3.53;;;2.40;;
32407;SDS011;18869;55.970;37.502;2023-09-08T03:37:25;2.40;;;2.20;;
32407;SDS011;18869;55.970;37.502;2023-09-08T03:39:52;2.90;;;2.60;;
32407;SDS011;18869;55.970;37.502;2023-09-08T03:42:19;2.20;;;2.00;;
32407;SDS011;18869;55.970;37.502;2023-09-08T03:44:47;3.70;;;2.00;;
32407;SDS011;18869;55.970;37.502;2023-09-08T03:47:14;2.40;;;2.20;;
32407;SDS011;18869;55.970;37.502;2023-09-08T03:49:41;2.30;;;2.10;;
32407;SDS011;18869;55.970;37.502;2023-09-08T03:52:08;2.63;;;2.43;;
32407;SDS011;18869;55.970;37.502;2023-09-08T03:54:35;2.87;;;2.30;;
32407;SDS011;18869;55.970;37.502;2023-09-08T03:57:03;2.30;;;2.10;;
32407;SDS011;18869;55.970;37.502;2023-09-08T03:59:30;1.93;;;1.83;;
32407;SDS011;18869;55.970;37.502;2023-09-08T04:01:58;2.00;;;1.90;;
32407;SDS011;18869;55.970;37.502;2023-09-08T04:04:27;2.60;;;2.40;;
32407;SDS011;18869;55.970;37.502;2023-09-08T04:06:54;2.53;;;2.23;;
32407;SDS011;18869;55.970;37.502;2023-09-08T04:09:21;2.07;;;1.97;;
32407;SDS011;18869;55.970;37.502;2023-09-08T04:11:48;1.80;;;1.70;;
32407;SDS011;18869;55.970;37.502;2023-09-08T04:14:15;2.83;;;2.03;;
32407;SDS011;18869;55.970;37.502;2023-09-08T04:16:42;3.63;;;2.30;;
32407;SDS011;18869;55.970;37.502;2023-09-08T04:19:09;1.80;;;1.70;;
32407;SDS011;18869;55.970;37.502;2023-09-08T04:21:37;2.80;;;1.83;;
32407;SDS011;18869;55.970;37.502;2023-09-08T04:24:04;1.80;;;1.70;;
32407;SDS011;18869;55.970;37.502;2023-09-08T04:26:33;1.53;;;1.43;;
32407;SDS011;18869;55.970;37.502;2023-09-08T04:29:00;1.87;;;1.73;;
32407;SDS011;18869;55.970;37.502;2023-09-08T04:31:26;2.27;;;1.90;;
32407;SDS011;18869;55.970;37.502;2023-09-08T04:33:54;1.70;;;1.60;;
32407;SDS011;18869;55.970;37.502;2023-09-08T04:36:21;3.80;;;1.80;;
32407;SDS011;18869;55.970;37.502;2023-09-08T04:38:49;2.57;;;1.97;;
32407;SDS011;18869;55.970;37.502;2023-09-08T04:41:16;2.00;;;1.73;;
32407;SDS011;18869;55.970;37.502;2023-09-08T04:43:43;3.43;;;1.90;;
32407;SDS011;18869;55.970;37.502;2023-09-08T04:46:12;2.57;;;2.13;;
32407;SDS011;18869;55.970;37.502;2023-09-08T04:48:40;1.73;;;1.63;;
32407;SDS011;18869;55.970;37.502;2023-09-08T04:51:08;2.47;;;2.03;;
32407;SDS011;18869;55.970;37.502;2023-09-08T04:53:36;1.80;;;1.70;;
32407;SDS011;18869;55.970;37.502;2023-09-08T04:56:04;2.40;;;2.20;;
32407;SDS011;18869;55.970;37.502;2023-09-08T04:58:31;2.67;;;1.80;;
32407;SDS011;18869;55.970;37.502;2023-09-08T05:00:58;1.70;;;1.60;;
32407;SDS011;18869;55.970;37.502;2023-09-08T05:03:25;1.70;;;1.60;;
32407;SDS011;18869;55.970;37.502;2023-09-08T05:05:54;3.23;;;1.40;;
32407;SDS011;18869;55.970;37.502;2023-09-08T05:08:21;1.67;;;1.57;;
32407;SDS011;18869;55.970;37.502;2023-09-08T05:10:49;1.50;;;1.40;;
32407;SDS011;18869;55.970;37.502;2023-09-08T05:13:16;1.67;;;1.57;;
32407;SDS011;18869;55.970;37.502;2023-09-08T05:15:44;1.77;;;1.50;;
32407;SDS011;18869;55.970;37.502;2023-09-08T05:18:14;1.90;;;1.80;;
32407;SDS011;18869;55.970;37.502;2023-09-08T05:20:41;1.83;;;1.60;;
32407;SDS011;18869;55.970;37.502;2023-09-08T05:23:08;2.47;;;1.77;;
32407;SDS011;18869;55.970;37.502;2023-09-08T05:25:35;1.57;;;1.47;;
32407;SDS011;18869;55.970;37.502;2023-09-08T05:28:03;1.53;;;1.43;;
32407;SDS011;18869;55.970;37.502;2023-09-08T05:30:30;1.83;;;1.47;;
32407;SDS011;18869;55.970;37.502;2023-09-08T05:32:57;1.30;;;1.20;;
32407;SDS011;18869;55.970;37.502;2023-09-08T05:35:24;3.40;;;1.37;;
32407;SDS011;18869;55.970;37.502;2023-09-08T05:37:51;1.53;;;1.43;;
32407;SDS011;18869;55.970;37.502;2023-09-08T05:40:19;2.30;;;1.37;;
32407;SDS011;18869;55.970;37.502;2023-09-08T05:42:49;1.27;;;0.93;;
32407;SDS011;18869;55.970;37.502;2023-09-08T05:45:17;1.50;;;1.40;;
32407;SDS011;18869;55.970;37.502;2023-09-08T05:47:45;1.10;;;1.10;;
32407;SDS011;18869;55.970;37.502;2023-09-08T05:50:12;1.50;;;1.40;;
32407;SDS011;18869;55.970;37.502;2023-09-08T05:52:39;1.50;;;1.40;;
32407;SDS011;18869;55.970;37.502;2023-09-08T05:55:06;1.50;;;1.40;;
32407;SDS011;18869;55.970;37.502;2023-09-08T05:57:34;1.73;;;1.53;;
32407;SDS011;18869;55.970;37.502;2023-09-08T06:00:01;1.60;;;1.50;;
32407;SDS011;18869;55.970;37.502;2023-09-08T06:02:40;2.30;;;1.60;;
32407;SDS011;18869;55.970;37.502;2023-09-08T06:05:08;2.30;;;1.70;;
32407;SDS011;18869;55.970;37.502;2023-09-08T06:07:35;1.57;;;1.47;;
32407;SDS011;18869;55.970;37.502;2023-09-08T06:10:02;1.60;;;1.50;;
32407;SDS011;18869;55.970;37.502;2023-09-08T06:12:30;2.33;;;1.33;;
32407;SDS011;18869;55.970;37.502;2023-09-08T06:14:57;2.33;;;1.57;;
32407;SDS011;18869;55.970;37.502;2023-09-08T06:17:25;0.93;;;0.93;;
32407;SDS011;18869;55.970;37.502;2023-09-08T06:19:55;1.40;;;1.30;;
32407;SDS011;18869;55.970;37.502;2023-09-08T06:22:22;2.73;;;1.33;;
32407;SDS011;18869;55.970;37.502;2023-09-08T06:24:49;1.40;;;1.30;;
32407;SDS011;18869;55.970;37.502;2023-09-08T06:27:16;2.07;;;1.33;;
32407;SDS011;18869;55.970;37.502;2023-09-08T06:29:44;1.57;;;1.43;;
32407;SDS011;18869;55.970;37.502;2023-09-08T06:32:11;1.97;;;1.60;;
32407;SDS011;18869;55.970;37.502;2023-09-08T06:34:39;1.50;;;1.40;;
32407;SDS011;18869;55.970;37.502;2023-09-08T06:37:08;2.33;;;1.80;;
32407;SDS011;18869;55.970;37.502;2023-09-08T06:39:35;1.67;;;1.40;;
32407;SDS011;18869;55.970;37.502;2023-09-08T06:42:03;2.67;;;2.13;;
32407;SDS011;18869;55.970;37.502;2023-09-08T06:44:30;3.43;;;2.20;;
32407;SDS011;18869;55.970;37.502;2023-09-08T06:46:57;2.00;;;1.80;;
32407;SDS011;18869;55.970;37.502;2023-09-08T06:49:25;1.80;;;1.30;;
32407;SDS011;18869;55.970;37.502;2023-09-08T06:51:52;1.80;;;1.20;;
32407;SDS011;18869;55.970;37.502;2023-09-08T06:54:20;2.33;;;1.30;;
32407;SDS011;18869;55.970;37.502;2023-09-08T06:56:47;1.03;;;0.90;;
32407;SDS011;18869;55.970;37.502;2023-09-08T06:59:14;1.00;;;0.90;;
32407;SDS011;18869;55.970;37.502;2023-09-08T07:01:43;0.93;;;0.83;;
32407;SDS011;18869;55.970;37.502;2023-09-08T07:04:10;0.90;;;0.90;;
32407;SDS011;18869;55.970;37.502;2023-09-08T07:06:37;1.03;;;0.93;;
32407;SDS011;18869;55.970;37.502;2023-09-08T07:09:07;1.20;;;1.07;;
32407;SDS011;18869;55.970;37.502;2023-09-08T07:11:35;1.23;;;0.80;;
32407;SDS011;18869;55.970;37.502;2023-09-08T07:14:02;3.45;;;0.73;;
32407;SDS011;18869;55.970;37.502;2023-09-08T07:16:30;1.73;;;0.70;;
32407;SDS011;18869;55.970;37.502;2023-09-08T07:18:57;1.08;;;0.80;;
32407;SDS011;18869;55.970;37.502;2023-09-08T07:21:27;1.98;;;0.77;;
32407;SDS011;18869;55.970;37.502;2023-09-08T07:23:54;2.85;;;0.90;;
32407;SDS011;18869;55.970;37.502;2023-09-08T07:26:22;0.70;;;0.65;;
32407;SDS011;18869;55.970;37.502;2023-09-08T07:28:50;1.50;;;0.65;;
32407;SDS011;18869;55.970;37.502;2023-09-08T07:31:18;0.65;;;0.52;;
32407;SDS011;18869;55.970;37.502;2023-09-08T07:33:46;0.77;;;0.75;;
32407;SDS011;18869;55.970;37.502;2023-09-08T07:36:13;2.67;;;0.57;;
32407;SDS011;18869;55.970;37.502;2023-09-08T07:38:41;3.37;;;1.33;;
32407;SDS011;18869;55.970;37.502;2023-09-08T07:41:08;2.65;;;1.50;;
32407;SDS011;18869;55.970;37.502;2023-09-08T07:43:35;6.03;;;3.42;;
32407;SDS011;18869;55.970;37.502;2023-09-08T07:46:07;11.30;;;5.90;;
32407;SDS011;18869;55.970;37.502;2023-09-08T07:48:35;2.85;;;1.67;;
32407;SDS011;18869;55.970;37.502;2023-09-08T07:51:02;1.58;;;1.02;;
32407;SDS011;18869;55.970;37.502;2023-09-08T07:53:29;1.35;;;1.17;;
32407;SDS011;18869;55.970;37.502;2023-09-08T07:55:57;1.55;;;0.90;;
32407;SDS011;18869;55.970;37.502;2023-09-08T07:58:24;2.53;;;1.30;;
32407;SDS011;18869;55.970;37.502;2023-09-08T08:00:51;6.65;;;3.50;;
32407;SDS011;18869;55.970;37.502;2023-09-08T08:03:20;7.10;;;3.70;;
32407;SDS011;18869;55.970;37.502;2023-09-08T08:05:47;8.85;;;3.20;;
32407;SDS011;18869;55.970;37.502;2023-09-08T08:08:13;5.85;;;3.58;;
32407;SDS011;18869;55.970;37.502;2023-09-08T08:10:42;2.03;;;1.35;;
32407;SDS011;18869;55.970;37.502;2023-09-08T08:13:09;5.60;;;1.00;;
32407;SDS011;18869;55.970;37.502;2023-09-08T08:15:37;1.03;;;0.70;;
32407;SDS011;18869;55.970;37.502;2023-09-08T08:18:05;1.57;;;0.97;;
32407;SDS011;18869;55.970;37.502;2023-09-08T08:20:33;4.23;;;2.97;;
32407;SDS011;18869;55.970;37.502;2023-09-08T08:23:01;4.20;;;2.20;;
32407;SDS011;18869;55.970;37.502;2023-09-08T08:25:28;5.37;;;3.40;;
32407;SDS011;18869;55.970;37.502;2023-09-08T08:27:56;5.57;;;3.53;;
32407;SDS011;18869;55.970;37.502;2023-09-08T08:30:24;5.87;;;2.30;;
32407;SDS011;18869;55.970;37.502;2023-09-08T08:32:51;6.70;;;2.43;;
32407;SDS011;18869;55.970;37.502;2023-09-08T08:35:18;3.20;;;1.63;;
32407;SDS011;18869;55.970;37.502;2023-09-08T08:37:46;2.57;;;1.20;;
32407;SDS011;18869;55.970;37.502;2023-09-08T08:40:14;1.50;;;1.20;;
32407;SDS011;18869;55.970;37.502;2023-09-08T08:42:41;2.37;;;1.10;;
32407;SDS011;18869;55.970;37.502;2023-09-08T08:45:10;2.23;;;1.30;;
32407;SDS011;18869;55.970;37.502;2023-09-08T08:47:38;2.50;;;1.00;;
32407;SDS011;18869;55.970;37.502;2023-09-08T08:50:06;1.60;;;1.50;;
32407;SDS011;18869;55.970;37.502;2023-09-08T08:52:37;6.27;;;2.37;;
32407;SDS011;18869;55.970;37.502;2023-09-08T08:55:06;7.77;;;2.43;;
32407;SDS011;18869;55.970;37.502;2023-09-08T08:57:34;3.20;;;1.33;;
32407;SDS011;18869;55.970;37.502;2023-09-08T09:00:03;1.80;;;1.30;;
32407;SDS011;18869;55.970;37.502;2023-09-08T09:02:36;1.70;;;1.37;;
32407;SDS011;18869;55.970;37.502;2023-09-08T09:05:04;2.37;;;1.70;;
32407;SDS011;18869;55.970;37.502;2023-09-08T09:07:32;5.53;;;1.60;;
32407;SDS011;18869;55.970;37.502;2023-09-08T09:09:59;4.97;;;2.00;;
32407;SDS011;18869;55.970;37.502;2023-09-08T09:12:30;2.53;;;1.70;;
32407;SDS011;18869;55.970;37.502;2023-09-08T09:14:57;4.70;;;1.80;;
32407;SDS011;18869;55.970;37.502;2023-09-08T09:17:25;3.53;;;1.97;;
32407;SDS011;18869;55.970;37.502;2023-09-08T09:19:54;1.77;;;1.40;;
32407;SDS011;18869;55.970;37.502;2023-09-08T09:22:39;2.97;;;1.30;;
32407;SDS011;18869;55.970;37.502;2023-09-08T09:25:07;1.87;;;1.23;;
32407;SDS011;18869;55.970;37.502;2023-09-08T09:27:35;1.23;;;1.00;;
32407;SDS011;18869;55.970;37.502;2023-09-08T09:30:05;1.87;;;1.23;;
32407;SDS011;18869;55.970;37.502;2023-09-08T09:32:33;2.07;;;1.10;;
32407;SDS011;18869;55.970;37.502;2023-09-08T09:35:01;2.90;;;1.03;;
32407;SDS011;18869;55.970;37.502;2023-09-08T09:37:29;4.87;;;1.20;;
32407;SDS011;18869;55.970;37.502;2023-09-08T09:39:56;6.27;;;2.90;;
32407;SDS011;18869;55.970;37.502;2023-09-08T09:42:23;2.80;;;1.27;;
32407;SDS011;18869;55.970;37.502;2023-09-08T09:44:52;5.13;;;1.10;;
32407;SDS011;18869;55.970;37.502;2023-09-08T09:47:19;1.37;;;0.93;;
32407;SDS011;18869;55.970;37.502;2023-09-08T09:49:46;2.67;;;1.47;;
32407;SDS011;18869;55.970;37.502;2023-09-08T09:52:19;1.27;;;1.17;;
32407;SDS011;18869;55.970;37.502;2023-09-08T09:54:48;2.40;;;1.40;;
32407;SDS011;18869;55.970;37.502;2023-09-08T09:57:17;1.47;;;1.00;;
32407;SDS011;18869;55.970;37.502;2023-09-08T09:59:46;1.30;;;1.03;;
32407;SDS011;18869;55.970;37.502;2023-09-08T10:02:17;2.23;;;1.37;;
32407;SDS011;18869;55.970;37.502;2023-09-08T10:04:47;2.07;;;1.60;;
32407;SDS011;18869;55.970;37.502;2023-09-08T10:07:15;2.37;;;1.20;;
32407;SDS011;18869;55.970;37.502;2023-09-08T10:09:42;6.27;;;1.50;;
32407;SDS011;18869;55.970;37.502;2023-09-08T10:12:12;3.20;;;1.20;;
32407;SDS011;18869;55.970;37.502;2023-09-08T10:14:43;1.70;;;1.60;;
32407;SDS011;18869;55.970;37.502;2023-09-08T10:17:12;2.03;;;1.50;;
32407;SDS011;18869;55.970;37.502;2023-09-08T10:19:44;1.70;;;1.50;;
32407;SDS011;18869;55.970;37.502;2023-09-08T10:22:19;3.23;;;1.30;;
32407;SDS011;18869;55.970;37.502;2023-09-08T10:24:49;1.50;;;1.40;;
32407;SDS011;18869;55.970;37.502;2023-09-08T10:27:17;1.33;;;1.10;;
32407;SDS011;18869;55.970;37.502;2023-09-08T10:29:46;1.40;;;1.10;;
32407;SDS011;18869;55.970;37.502;2023-09-08T10:32:13;1.30;;;0.90;;
32407;SDS011;18869;55.970;37.502;2023-09-08T10:34:41;1.93;;;1.10;;
32407;SDS011;18869;55.970;37.502;2023-09-08T10:37:19;1.30;;;0.80;;
32407;SDS011;18869;55.970;37.502;2023-09-08T10:39:47;0.50;;;0.50;;
32407;SDS011;18869;55.970;37.502;2023-09-08T10:42:21;0.90;;;0.50;;
32407;SDS011;18869;55.970;37.502;2023-09-08T10:44:55;1.93;;;0.50;;
32407;SDS011;18869;55.970;37.502;2023-09-08T10:47:23;1.10;;;0.60;;
32407;SDS011;18869;55.970;37.502;2023-09-08T10:49:51;1.80;;;0.70;;
32407;SDS011;18869;55.970;37.502;2023-09-08T10:52:21;1.13;;;0.90;;
32407;SDS011;18869;55.970;37.502;2023-09-08T10:54:49;0.83;;;0.73;;
32407;SDS011;18869;55.970;37.502;2023-09-08T10:57:17;1.50;;;0.80;;
32407;SDS011;18869;55.970;37.502;2023-09-08T10:59:46;0.80;;;0.70;;
32407;SDS011;18869;55.970;37.502;2023-09-08T11:02:33;1.37;;;0.73;;
32407;SDS011;18869;55.970;37.502;2023-09-08T11:05:03;1.03;;;0.90;;
32407;SDS011;18869;55.970;37.502;2023-09-08T11:07:32;1.40;;;1.10;;
32407;SDS011;18869;55.970;37.502;2023-09-08T11:09:59;1.57;;;0.80;;
32407;SDS011;18869;55.970;37.502;2023-09-08T11:12:26;3.37;;;1.00;;
32407;SDS011;18869;55.970;37.502;2023-09-08T11:14:54;3.23;;;1.10;;
32407;SDS011;18869;55.970;37.502;2023-09-08T11:17:24;2.43;;;1.30;;
32407;SDS011;18869;55.970;37.502;2023-09-08T11:19:52;1.00;;;1.00;;
32407;SDS011;18869;55.970;37.502;2023-09-08T11:22:21;1.50;;;1.40;;
32407;SDS011;18869;55.970;37.502;2023-09-08T11:24:50;1.40;;;1.30;;
32407;SDS011;18869;55.970;37.502;2023-09-08T11:27:18;1.70;;;1.13;;
32407;SDS011;18869;55.970;37.502;2023-09-08T11:29:46;1.37;;;1.00;;
32407;SDS011;18869;55.970;37.502;2023-09-08T11:32:15;2.13;;;1.23;;
32407;SDS011;18869;55.970;37.502;2023-09-08T11:34:45;1.53;;;1.20;;
32407;SDS011;18869;55.970;37.502;2023-09-08T11:37:12;2.90;;;1.80;;
32407;SDS011;18869;55.970;37.502;2023-09-08T11:39:41;4.37;;;1.70;;
32407;SDS011;18869;55.970;37.502;2023-09-08T11:42:11;1.73;;;1.20;;
32407;SDS011;18869;55.970;37.502;2023-09-08T11:44:39;2.47;;;1.40;;
32407;SDS011;18869;55.970;37.502;2023-09-08T11:47:07;1.40;;;1.13;;
32407;SDS011;18869;55.970;37.502;2023-09-08T11:49:35;4.30;;;1.43;;
32407;SDS011;18869;55.970;37.502;2023-09-08T11:52:03;2.73;;;1.43;;
32407;SDS011;18869;55.970;37.502;2023-09-08T11:54:31;1.53;;;1.30;;
32407;SDS011;18869;55.970;37.502;2023-09-08T11:56:59;2.07;;;1.00;;
32407;SDS011;18869;55.970;37.502;2023-09-08T11:59:28;2.50;;;1.07;;
32407;SDS011;18869;55.970;37.502;2023-09-08T12:01:57;1.73;;;0.90;;
32407;SDS011;18869;55.970;37.502;2023-09-08T12:04:25;1.93;;;0.80;;
32407;SDS011;18869;55.970;37.502;2023-09-08T12:06:52;1.40;;;1.20;;
32407;SDS011;18869;55.970;37.502;2023-09-08T12:09:22;2.10;;;1.10;;
32407;SDS011;18869;55.970;37.502;2023-09-08T12:11:50;3.27;;;1.87;;
32407;SDS011;18869;55.970;37.502;2023-09-08T12:14:16;3.33;;;3.03;;
32407;SDS011;18869;55.970;37.502;2023-09-08T12:16:44;3.13;;;2.47;;
32407;SDS011;18869;55.970;37.502;2023-09-08T12:19:28;2.23;;;1.37;;
32407;SDS011;18869;55.970;37.502;2023-09-08T12:21:56;1.63;;;1.50;;
32407;SDS011;18869;55.970;37.502;2023-09-08T12:27:12;1.10;;;1.10;;
32407;SDS011;18869;55.970;37.502;2023-09-08T12:29:41;2.10;;;1.13;;
32407;SDS011;18869;55.970;37.502;2023-09-08T12:32:09;1.13;;;1.00;;
32407;SDS011;18869;55.970;37.502;2023-09-08T12:34:36;1.17;;;1.07;;
32407;SDS011;18869;55.970;37.502;2023-09-08T12:37:05;1.80;;;1.47;;
32407;SDS011;18869;55.970;37.502;2023-09-08T12:39:33;1.97;;;1.20;;
32407;SDS011;18869;55.970;37.502;2023-09-08T12:42:02;2.10;;;1.47;;
32407;SDS011;18869;55.970;37.502;2023-09-08T12:44:32;1.20;;;1.07;;
32407;SDS011;18869;55.970;37.502;2023-09-08T12:46:59;2.40;;;1.10;;
32407;SDS011;18869;55.970;37.502;2023-09-08T12:49:27;3.03;;;1.30;;
32407;SDS011;18869;55.970;37.502;2023-09-08T12:51:54;0.90;;;0.90;;
32407;SDS011;18869;55.970;37.502;2023-09-08T12:54:21;3.70;;;1.33;;
32407;SDS011;18869;55.970;37.502;2023-09-08T12:56:48;1.30;;;1.20;;
32407;SDS011;18869;55.970;37.502;2023-09-08T12:59:17;2.97;;;1.00;;
32407;SDS011;18869;55.970;37.502;2023-09-08T13:01:44;1.47;;;1.13;;
32407;SDS011;18869;55.970;37.502;2023-09-08T13:04:11;0.90;;;0.90;;
32407;SDS011;18869;55.970;37.502;2023-09-08T13:06:39;2.73;;;1.30;;
32407;SDS011;18869;55.970;37.502;2023-09-08T13:09:07;3.43;;;2.77;;
32407;SDS011;18869;55.970;37.502;2023-09-08T13:11:34;1.77;;;1.63;;
32407;SDS011;18869;55.970;37.502;2023-09-08T13:14:01;1.17;;;1.07;;
32407;SDS011;18869;55.970;37.502;2023-09-08T13:16:28;1.53;;;1.10;;
32407;SDS011;18869;55.970;37.502;2023-09-08T13:18:55;2.67;;;1.10;;
32407;SDS011;18869;55.970;37.502;2023-09-08T13:21:22;1.67;;;1.50;;
32407;SDS011;18869;55.970;37.502;2023-09-08T13:23:52;1.00;;;1.00;;
32407;SDS011;18869;55.970;37.502;2023-09-08T13:26:19;5.70;;;1.20;;
32407;SDS011;18869;55.970;37.502;2023-09-08T13:28:46;1.27;;;1.17;;
32407;SDS011;18869;55.970;37.502;2023-09-08T13:31:13;1.23;;;1.23;;
32407;SDS011;18869;55.970;37.502;2023-09-08T13:33:40;1.87;;;1.73;;
32407;SDS011;18869;55.970;37.502;2023-09-08T13:36:08;1.60;;;1.50;;
32407;SDS011;18869;55.970;37.502;2023-09-08T13:38:34;1.40;;;1.10;;
32407;SDS011;18869;55.970;37.502;2023-09-08T13:41:02;3.23;;;1.40;;
32407;SDS011;18869;55.970;37.502;2023-09-08T13:43:38;2.10;;;1.60;;
32407;SDS011;18869;55.970;37.502;2023-09-08T13:46:07;2.07;;;1.60;;
32407;SDS011;18869;55.970;37.502;2023-09-08T13:48:38;1.97;;;1.70;;
32407;SDS011;18869;55.970;37.502;2023-09-08T13:51:07;1.70;;;1.60;;
32407;SDS011;18869;55.970;37.502;2023-09-08T13:53:40;3.53;;;1.60;;
32407;SDS011;18869;55.970;37.502;2023-09-08T13:56:09;1.50;;;1.40;;
32407;SDS011;18869;55.970;37.502;2023-09-08T13:58:46;1.50;;;1.30;;
32407;SDS011;18869;55.970;37.502;2023-09-08T14:01:15;2.20;;;0.80;;
32407;SDS011;18869;55.970;37.502;2023-09-08T14:03:44;2.57;;;1.17;;
32407;SDS011;18869;55.970;37.502;2023-09-08T14:06:32;1.33;;;1.23;;
32407;SDS011;18869;55.970;37.502;2023-09-08T14:09:03;1.30;;;1.20;;
32407;SDS011;18869;55.970;37.502;2023-09-08T14:11:35;1.20;;;1.10;;
32407;SDS011;18869;55.970;37.502;2023-09-08T14:14:04;1.50;;;1.10;;
32407;SDS011;18869;55.970;37.502;2023-09-08T14:16:31;4.20;;;1.27;;
32407;SDS011;18869;55.970;37.502;2023-09-08T14:19:09;1.50;;;1.40;;
32407;SDS011;18869;55.970;37.502;2023-09-08T14:21:40;1.30;;;1.20;;
32407;SDS011;18869;55.970;37.502;2023-09-08T14:24:10;1.60;;;1.40;;
32407;SDS011;18869;55.970;37.502;2023-09-08T14:26:44;1.80;;;1.70;;
32407;SDS011;18869;55.970;37.502;2023-09-08T14:29:14;3.77;;;1.73;;
32407;SDS011;18869;55.970;37.502;2023-09-08T14:31:54;1.77;;;1.60;;
32407;SDS011;18869;55.970;37.502;2023-09-08T14:34:21;1.67;;;1.57;;
32407;SDS011;18869;55.970;37.502;2023-09-08T14:36:50;2.07;;;1.87;;
32407;SDS011;18869;55.970;37.502;2023-09-08T14:39:21;2.00;;;1.90;;
32407;SDS011;18869;55.970;37.502;2023-09-08T14:41:55;4.40;;;1.80;;
32407;SDS011;18869;55.970;37.502;2023-09-08T14:44:22;6.20;;;1.60;;